sensor_id;sensor_type;location;lat;lon;timestamp;pressure;altitude;pressure_sealevel;temperature;humidity
11349;BME280;5729;43.570;27.826;2022-07-05T00:01:05;99093.78;;;21.92;100.00
11349;BME280;5729;43.570;27.826;2022-07-05T00:03:30;99089.00;;;21.96;100.00
11349;BME280;5729;43.570;27.826;2022-07-05T00:05:57;99091.22;;;22.01;100.00
11349;BME280;5729;43.570;27.826;2022-07-05T00:08:23;99092.25;;;22.07;100.00
11349;BME280;5729;43.570;27.826;2022-07-05T00:10:49;99095.13;;;22.16;100.00
11349;BME280;5729;43.570;27.826;2022-07-05T00:13:14;99087.22;;;22.18;100.00
11349;BME280;5729;43.570;27.826;2022-07-05T00:15:40;99089.22;;;22.18;100.00
11349;BME280;5729;43.570;27.826;2022-07-05T00:18:06;99088.00;;;22.19;100.00
11349;BME280;5729;43.570;27.826;2022-07-05T00:20:32;99095.59;;;22.27;100.00
11349;BME280;5729;43.570;27.826;2022-07-05T00:22:57;99101.09;;;22.27;100.00
11349;BME280;5729;43.570;27.826;2022-07-05T00:25:23;99098.69;;;22.29;100.00
11349;BME280;5729;43.570;27.826;2022-07-05T00:27:48;99061.78;;;22.01;100.00
11349;BME280;5729;43.570;27.826;2022-07-05T00:30:14;99109.69;;;22.29;100.00
11349;BME280;5729;43.570;27.826;2022-07-05T00:32:40;99103.50;;;22.25;100.00
11349;BME280;5729;43.570;27.826;2022-07-05T00:35:06;99111.13;;;22.34;100.00
11349;BME280;5729;43.570;27.826;2022-07-05T00:37:32;99095.69;;;22.24;100.00
11349;BME280;5729;43.570;27.826;2022-07-05T00:39:58;99121.66;;;22.35;100.00
11349;BME280;5729;43.570;27.826;2022-07-05T00:42:23;99111.78;;;22.38;100.00
11349;BME280;5729;43.570;27.826;2022-07-05T00:44:49;99108.69;;;22.36;100.00
11349;BME280;5729;43.570;27.826;2022-07-05T00:47:14;99105.19;;;22.35;100.00
11349;BME280;5729;43.570;27.826;2022-07-05T00:49:41;99094.19;;;22.35;100.00
11349;BME280;5729;43.570;27.826;2022-07-05T00:52:06;99097.72;;;22.36;100.00
11349;BME280;5729;43.570;27.826;2022-07-05T00:54:34;99091.78;;;22.37;100.00
11349;BME280;5729;43.570;27.826;2022-07-05T00:57:00;99093.34;;;22.38;100.00
11349;BME280;5729;43.570;27.826;2022-07-05T00:59:26;99081.53;;;22.25;100.00
11349;BME280;5729;43.570;27.826;2022-07-05T01:01:52;99098.47;;;22.36;100.00
11349;BME280;5729;43.570;27.826;2022-07-05T01:04:17;99073.41;;;22.22;100.00
11349;BME280;5729;43.570;27.826;2022-07-05T01:06:46;99087.50;;;22.36;100.00
11349;BME280;5729;43.570;27.826;2022-07-05T01:09:12;99081.69;;;22.34;100.00
11349;BME280;5729;43.570;27.826;2022-07-05T01:11:39;99097.16;;;22.28;100.00
11349;BME280;5729;43.570;27.826;2022-07-05T01:14:05;99083.97;;;22.23;100.00
11349;BME280;5729;43.570;27.826;2022-07-05T01:16:37;99081.31;;;22.20;100.00
11349;BME280;5729;43.570;27.826;2022-07-05T01:19:05;99077.81;;;22.19;100.00
11349;BME280;5729;43.570;27.826;2022-07-05T01:21:40;99081.84;;;22.15;100.00
11349;BME280;5729;43.570;27.826;2022-07-05T01:24:17;99079.44;;;22.17;100.00
11349;BME280;5729;43.570;27.826;2022-07-05T01:26:46;99076.69;;;22.17;100.00
11349;BME280;5729;43.570;27.826;2022-07-05T01:29:12;99062.56;;;22.02;100.00
11349;BME280;5729;43.570;27.826;2022-07-05T01:31:39;99078.09;;;22.08;100.00
11349;BME280;5729;43.570;27.826;2022-07-05T01:37:28;99083.31;;;22.03;100.00
11349;BME280;5729;43.570;27.826;2022-07-05T01:39:54;99085.72;;;22.01;100.00
11349;BME280;5729;43.570;27.826;2022-07-05T01:42:20;99083.44;;;21.99;100.00
11349;BME280;5729;43.570;27.826;2022-07-05T01:44:46;99074.06;;;21.97;100.00
11349;BME280;5729;43.570;27.826;2022-07-05T01:47:12;99079.56;;;21.97;100.00
11349;BME280;5729;43.570;27.826;2022-07-05T01:49:43;99081.53;;;21.96;100.00
11349;BME280;5729;43.570;27.826;2022-07-05T01:52:12;99078.00;;;21.96;100.00
11349;BME280;5729;43.570;27.826;2022-07-05T01:54:38;99084.69;;;21.95;100.00
11349;BME280;5729;43.570;27.826;2022-07-05T01:57:05;99079.63;;;21.93;100.00
11349;BME280;5729;43.570;27.826;2022-07-05T01:59:35;99080.94;;;21.89;100.00
11349;BME280;5729;43.570;27.826;2022-07-05T02:02:02;99076.31;;;21.86;100.00
11349;BME280;5729;43.570;27.826;2022-07-05T02:04:28;99085.75;;;21.85;100.00
11349;BME280;5729;43.570;27.826;2022-07-05T02:06:54;99085.75;;;21.85;100.00
11349;BME280;5729;43.570;27.826;2022-07-05T02:09:19;99091.66;;;21.83;100.00
11349;BME280;5729;43.570;27.826;2022-07-05T02:11:45;99084.22;;;21.84;100.00
11349;BME280;5729;43.570;27.826;2022-07-05T02:14:10;99086.94;;;21.84;100.00
11349;BME280;5729;43.570;27.826;2022-07-05T02:16:37;99066.47;;;21.72;100.00
11349;BME280;5729;43.570;27.826;2022-07-05T02:19:02;99094.31;;;21.87;100.00
11349;BME280;5729;43.570;27.826;2022-07-05T02:21:28;99095.19;;;21.84;100.00
11349;BME280;5729;43.570;27.826;2022-07-05T02:23:54;99064.69;;;21.65;100.00
11349;BME280;5729;43.570;27.826;2022-07-05T02:26:19;99100.75;;;21.80;100.00
11349;BME280;5729;43.570;27.826;2022-07-05T02:28:45;99074.13;;;21.64;100.00
11349;BME280;5729;43.570;27.826;2022-07-05T02:31:10;99101.63;;;21.77;100.00
11349;BME280;5729;43.570;27.826;2022-07-05T02:33:36;99100.44;;;21.78;100.00
11349;BME280;5729;43.570;27.826;2022-07-05T02:36:09;99085.44;;;21.66;100.00
11349;BME280;5729;43.570;27.826;2022-07-05T02:38:35;99100.59;;;21.71;100.00
11349;BME280;5729;43.570;27.826;2022-07-05T02:41:03;99098.72;;;21.68;100.00
11349;BME280;5729;43.570;27.826;2022-07-05T02:43:29;99098.72;;;21.68;100.00
11349;BME280;5729;43.570;27.826;2022-07-05T02:45:54;99105.06;;;21.65;100.00
11349;BME280;5729;43.570;27.826;2022-07-05T02:48:19;99106.69;;;21.62;100.00
11349;BME280;5729;43.570;27.826;2022-07-05T02:50:45;99103.59;;;21.60;100.00
11349;BME280;5729;43.570;27.826;2022-07-05T02:53:12;99106.78;;;21.59;100.00
11349;BME280;5729;43.570;27.826;2022-07-05T02:55:37;99102.91;;;21.56;100.00
11349;BME280;5729;43.570;27.826;2022-07-05T02:58:03;99108.09;;;21.54;100.00
11349;BME280;5729;43.570;27.826;2022-07-05T03:00:28;99099.84;;;21.54;100.00
11349;BME280;5729;43.570;27.826;2022-07-05T03:02:54;99104.81;;;21.59;100.00
11349;BME280;5729;43.570;27.826;2022-07-05T03:05:19;99108.31;;;21.60;100.00
11349;BME280;5729;43.570;27.826;2022-07-05T03:07:44;99116.47;;;21.63;100.00
11349;BME280;5729;43.570;27.826;2022-07-05T03:10:10;99112.97;;;21.63;100.00
11349;BME280;5729;43.570;27.826;2022-07-05T03:12:35;99114.84;;;21.66;100.00
11349;BME280;5729;43.570;27.826;2022-07-05T03:15:01;99110.13;;;21.66;100.00
11349;BME280;5729;43.570;27.826;2022-07-05T03:17:27;99110.72;;;21.58;100.00
11349;BME280;5729;43.570;27.826;2022-07-05T03:19:52;99125.38;;;21.67;100.00
11349;BME280;5729;43.570;27.826;2022-07-05T03:22:17;99123.75;;;21.70;100.00
11349;BME280;5729;43.570;27.826;2022-07-05T03:24:43;99124.94;;;21.69;100.00
11349;BME280;5729;43.570;27.826;2022-07-05T03:27:08;99124.50;;;21.70;100.00
11349;BME280;5729;43.570;27.826;2022-07-05T03:29:34;99132.22;;;21.76;100.00
11349;BME280;5729;43.570;27.826;2022-07-05T03:31:59;99124.66;;;21.80;100.00
11349;BME280;5729;43.570;27.826;2022-07-05T03:34:25;99116.91;;;21.78;100.00
11349;BME280;5729;43.570;27.826;2022-07-05T03:36:50;99124.50;;;21.87;100.00
11349;BME280;5729;43.570;27.826;2022-07-05T03:39:16;99114.19;;;21.91;100.00
11349;BME280;5729;43.570;27.826;2022-07-05T03:41:41;99108.28;;;21.92;100.00
11349;BME280;5729;43.570;27.826;2022-07-05T03:44:07;99110.94;;;21.96;100.00
11349;BME280;5729;43.570;27.826;2022-07-05T03:46:32;99114.81;;;21.98;100.00
11349;BME280;5729;43.570;27.826;2022-07-05T03:48:58;99121.31;;;22.04;100.00
11349;BME280;5729;43.570;27.826;2022-07-05T03:51:23;99115.84;;;22.04;100.00
11349;BME280;5729;43.570;27.826;2022-07-05T03:53:49;99125.53;;;22.09;100.00
11349;BME280;5729;43.570;27.826;2022-07-05T03:56:14;99127.41;;;22.12;100.00
11349;BME280;5729;43.570;27.826;2022-07-05T03:58:46;99130.47;;;22.14;100.00
11349;BME280;5729;43.570;27.826;2022-07-05T04:01:12;99128.06;;;22.16;100.00
11349;BME280;5729;43.570;27.826;2022-07-05T04:03:37;99129.53;;;22.21;100.00
11349;BME280;5729;43.570;27.826;2022-07-05T04:06:03;99128.22;;;22.25;100.00
11349;BME280;5729;43.570;27.826;2022-07-05T04:08:28;99143.41;;;22.30;100.00
11349;BME280;5729;43.570;27.826;2022-07-05T04:10:54;99136.28;;;22.32;100.00
11349;BME280;5729;43.570;27.826;2022-07-05T04:13:19;99133.53;;;22.32;100.00
11349;BME280;5729;43.570;27.826;2022-07-05T04:15:45;99138.69;;;22.30;100.00
11349;BME280;5729;43.570;27.826;2022-07-05T04:18:10;99139.34;;;22.34;100.00
11349;BME280;5729;43.570;27.826;2022-07-05T04:20:36;99144.06;;;22.34;100.00
11349;BME280;5729;43.570;27.826;2022-07-05T04:23:01;99147.69;;;22.31;100.00
11349;BME280;5729;43.570;27.826;2022-07-05T04:25:27;99138.34;;;22.28;100.00
11349;BME280;5729;43.570;27.826;2022-07-05T04:27:53;99137.00;;;22.20;100.00
11349;BME280;5729;43.570;27.826;2022-07-05T04:30:21;99139.09;;;22.29;100.00
11349;BME280;5729;43.570;27.826;2022-07-05T04:32:48;99142.63;;;22.29;100.00
11349;BME280;5729;43.570;27.826;2022-07-05T04:35:13;99139.25;;;22.38;100.00
11349;BME280;5729;43.570;27.826;2022-07-05T04:37:39;99140.16;;;22.48;100.00
11349;BME280;5729;43.570;27.826;2022-07-05T04:40:07;99124.69;;;22.54;100.00
11349;BME280;5729;43.570;27.826;2022-07-05T04:42:33;99093.16;;;22.45;100.00
11349;BME280;5729;43.570;27.826;2022-07-05T04:44:59;99117.78;;;22.62;100.00
11349;BME280;5729;43.570;27.826;2022-07-05T04:47:25;99122.31;;;22.68;100.00
11349;BME280;5729;43.570;27.826;2022-07-05T04:49:51;99095.59;;;22.56;100.00
11349;BME280;5729;43.570;27.826;2022-07-05T04:52:17;99116.06;;;22.80;100.00
11349;BME280;5729;43.570;27.826;2022-07-05T04:54:42;99114.34;;;22.87;100.00
11349;BME280;5729;43.570;27.826;2022-07-05T04:57:08;99122.25;;;22.97;100.00
11349;BME280;5729;43.570;27.826;2022-07-05T04:59:33;99125.56;;;23.05;100.00
11349;BME280;5729;43.570;27.826;2022-07-05T05:01:59;99124.91;;;23.13;100.00
11349;BME280;5729;43.570;27.826;2022-07-05T05:04:24;99121.94;;;23.21;100.00
11349;BME280;5729;43.570;27.826;2022-07-05T05:06:50;99126.34;;;23.31;100.00
11349;BME280;5729;43.570;27.826;2022-07-05T05:09:15;99122.81;;;23.43;100.00
11349;BME280;5729;43.570;27.826;2022-07-05T05:11:41;99121.28;;;23.55;100.00
11349;BME280;5729;43.570;27.826;2022-07-05T05:14:06;99119.06;;;23.62;99.56
11349;BME280;5729;43.570;27.826;2022-07-05T05:16:32;99128.06;;;23.75;96.85
11349;BME280;5729;43.570;27.826;2022-07-05T05:18:57;99128.47;;;23.86;96.56
11349;BME280;5729;43.570;27.826;2022-07-05T05:21:23;99128.09;;;23.97;93.08
11349;BME280;5729;43.570;27.826;2022-07-05T05:23:48;99128.50;;;24.08;87.33
11349;BME280;5729;43.570;27.826;2022-07-05T05:26:14;99121.84;;;24.18;87.33
11349;BME280;5729;43.570;27.826;2022-07-05T05:28:40;99120.72;;;24.29;85.39
11349;BME280;5729;43.570;27.826;2022-07-05T05:31:05;99118.81;;;24.38;86.58
11349;BME280;5729;43.570;27.826;2022-07-05T05:33:31;99125.94;;;24.48;87.20
11349;BME280;5729;43.570;27.826;2022-07-05T05:35:56;99126.44;;;24.56;83.19
11349;BME280;5729;43.570;27.826;2022-07-05T05:38:22;99129.56;;;24.67;79.56
11349;BME280;5729;43.570;27.826;2022-07-05T05:40:47;99133.16;;;24.77;78.88
11349;BME280;5729;43.570;27.826;2022-07-05T05:43:13;99130.59;;;24.82;67.28
11349;BME280;5729;43.570;27.826;2022-07-05T05:45:38;99130.22;;;24.93;66.72
11349;BME280;5729;43.570;27.826;2022-07-05T05:48:04;99116.53;;;24.89;60.95
11349;BME280;5729;43.570;27.826;2022-07-05T05:50:35;99128.88;;;25.07;58.40
11349;BME280;5729;43.570;27.826;2022-07-05T05:53:02;99133.25;;;25.17;60.60
11349;BME280;5729;43.570;27.826;2022-07-05T05:55:29;99138.78;;;25.26;60.62
11349;BME280;5729;43.570;27.826;2022-07-05T05:57:55;99140.47;;;25.32;59.72
11349;BME280;5729;43.570;27.826;2022-07-05T06:00:23;99141.72;;;25.41;58.00
11349;BME280;5729;43.570;27.826;2022-07-05T06:02:50;99140.25;;;25.49;57.62
11349;BME280;5729;43.570;27.826;2022-07-05T06:05:16;99135.06;;;25.60;58.09
11349;BME280;5729;43.570;27.826;2022-07-05T06:07:53;99147.38;;;25.68;55.92
11349;BME280;5729;43.570;27.826;2022-07-05T06:12:45;99145.38;;;25.87;56.00
11349;BME280;5729;43.570;27.826;2022-07-05T06:15:11;99141.13;;;25.95;58.61
11349;BME280;5729;43.570;27.826;2022-07-05T06:17:37;99148.66;;;26.03;53.20
11349;BME280;5729;43.570;27.826;2022-07-05T06:20:07;99144.97;;;26.07;51.79
11349;BME280;5729;43.570;27.826;2022-07-05T06:22:33;99148.97;;;26.15;50.17
11349;BME280;5729;43.570;27.826;2022-07-05T06:24:59;99139.91;;;26.23;47.73
11349;BME280;5729;43.570;27.826;2022-07-05T06:27:24;99129.50;;;26.27;47.03
11349;BME280;5729;43.570;27.826;2022-07-05T06:29:49;99139.31;;;26.37;45.93
11349;BME280;5729;43.570;27.826;2022-07-05T06:32:15;99141.63;;;26.39;45.53
11349;BME280;5729;43.570;27.826;2022-07-05T06:34:40;99140.84;;;26.48;45.86
11349;BME280;5729;43.570;27.826;2022-07-05T06:37:06;99138.19;;;26.53;45.56
11349;BME280;5729;43.570;27.826;2022-07-05T06:39:31;99125.16;;;26.54;46.11
11349;BME280;5729;43.570;27.826;2022-07-05T06:41:59;99110.28;;;26.51;44.38
11349;BME280;5729;43.570;27.826;2022-07-05T06:44:24;99127.44;;;26.73;44.99
11349;BME280;5729;43.570;27.826;2022-07-05T06:46:50;99137.38;;;26.80;44.64
11349;BME280;5729;43.570;27.826;2022-07-05T06:49:15;99131.41;;;26.82;46.59
11349;BME280;5729;43.570;27.826;2022-07-05T06:51:41;99135.34;;;26.90;45.84
11349;BME280;5729;43.570;27.826;2022-07-05T06:54:06;99148.13;;;26.96;45.34
11349;BME280;5729;43.570;27.826;2022-07-05T06:56:32;99145.81;;;27.04;44.76
11349;BME280;5729;43.570;27.826;2022-07-05T06:58:57;99143.16;;;27.09;44.86
11349;BME280;5729;43.570;27.826;2022-07-05T07:01:22;99146.22;;;27.11;45.69
11349;BME280;5729;43.570;27.826;2022-07-05T07:03:48;99152.38;;;27.16;44.96
11349;BME280;5729;43.570;27.826;2022-07-05T07:06:14;99141.72;;;27.23;44.99
11349;BME280;5729;43.570;27.826;2022-07-05T07:08:40;99122.03;;;27.21;43.82
11349;BME280;5729;43.570;27.826;2022-07-05T07:11:24;99148.41;;;27.40;44.48
11349;BME280;5729;43.570;27.826;2022-07-05T07:13:50;99128.44;;;27.36;46.02
11349;BME280;5729;43.570;27.826;2022-07-05T07:16:15;99151.44;;;27.52;42.65
11349;BME280;5729;43.570;27.826;2022-07-05T07:18:41;99140.03;;;27.59;43.51
11349;BME280;5729;43.570;27.826;2022-07-05T07:21:06;99142.19;;;27.64;43.51
11349;BME280;5729;43.570;27.826;2022-07-05T07:23:31;99153.34;;;27.69;42.38
11349;BME280;5729;43.570;27.826;2022-07-05T07:25:57;99145.47;;;27.77;41.71
11349;BME280;5729;43.570;27.826;2022-07-05T07:28:23;99143.59;;;27.83;41.25
11349;BME280;5729;43.570;27.826;2022-07-05T07:30:49;99143.22;;;27.90;40.63
11349;BME280;5729;43.570;27.826;2022-07-05T07:33:14;99152.72;;;27.98;41.27
11349;BME280;5729;43.570;27.826;2022-07-05T07:35:40;99146.03;;;28.05;38.30
11349;BME280;5729;43.570;27.826;2022-07-05T07:38:06;99123.34;;;27.92;37.42
11349;BME280;5729;43.570;27.826;2022-07-05T07:40:31;99148.72;;;28.14;38.90
11349;BME280;5729;43.570;27.826;2022-07-05T07:42:57;99157.19;;;28.20;40.50
11349;BME280;5729;43.570;27.826;2022-07-05T07:45:22;99142.66;;;28.25;39.30
11349;BME280;5729;43.570;27.826;2022-07-05T07:47:47;99152.72;;;28.37;37.39
11349;BME280;5729;43.570;27.826;2022-07-05T07:50:13;99164.50;;;28.46;38.75
11349;BME280;5729;43.570;27.826;2022-07-05T07:52:38;99161.38;;;28.53;37.27
11349;BME280;5729;43.570;27.826;2022-07-05T07:55:05;99164.22;;;28.59;36.83
11349;BME280;5729;43.570;27.826;2022-07-05T07:57:31;99160.97;;;28.61;34.78
11349;BME280;5729;43.570;27.826;2022-07-05T07:59:57;99144.94;;;28.65;37.28
11349;BME280;5729;43.570;27.826;2022-07-05T08:02:23;99161.88;;;28.81;35.09
11349;BME280;5729;43.570;27.826;2022-07-05T08:04:51;99155.56;;;28.96;35.58
11349;BME280;5729;43.570;27.826;2022-07-05T08:07:17;99163.66;;;29.14;35.64
11349;BME280;5729;43.570;27.826;2022-07-05T08:09:43;99163.44;;;29.47;34.19
11349;BME280;5729;43.570;27.826;2022-07-05T08:12:09;99159.97;;;30.27;33.87
11349;BME280;5729;43.570;27.826;2022-07-05T08:14:35;99163.00;;;31.70;34.12
11349;BME280;5729;43.570;27.826;2022-07-05T08:17:00;99145.34;;;33.10;29.26
11349;BME280;5729;43.570;27.826;2022-07-05T08:19:26;99151.44;;;34.17;25.92
11349;BME280;5729;43.570;27.826;2022-07-05T08:22:10;99152.84;;;35.90;25.19
11349;BME280;5729;43.570;27.826;2022-07-05T08:24:37;99163.56;;;37.30;28.04
11349;BME280;5729;43.570;27.826;2022-07-05T08:27:05;99166.63;;;38.59;29.08
11349;BME280;5729;43.570;27.826;2022-07-05T08:29:30;99150.50;;;40.22;30.70
11349;BME280;5729;43.570;27.826;2022-07-05T08:31:56;99141.63;;;41.38;28.92
11349;BME280;5729;43.570;27.826;2022-07-05T08:34:22;99157.69;;;42.46;21.87
11349;BME280;5729;43.570;27.826;2022-07-05T08:36:48;99159.53;;;43.08;19.06
11349;BME280;5729;43.570;27.826;2022-07-05T08:39:14;99139.25;;;43.71;19.37
11349;BME280;5729;43.570;27.826;2022-07-05T08:41:41;99145.38;;;43.67;16.48
11349;BME280;5729;43.570;27.826;2022-07-05T08:44:07;99145.00;;;43.80;17.16
11349;BME280;5729;43.570;27.826;2022-07-05T08:46:37;99147.44;;;44.01;18.34
11349;BME280;5729;43.570;27.826;2022-07-05T08:49:04;99147.34;;;44.09;18.67
11349;BME280;5729;43.570;27.826;2022-07-05T08:51:32;99146.97;;;44.49;17.75
11349;BME280;5729;43.570;27.826;2022-07-05T08:53:59;99146.69;;;45.28;17.57
11349;BME280;5729;43.570;27.826;2022-07-05T08:56:25;99135.59;;;45.32;15.84
11349;BME280;5729;43.570;27.826;2022-07-05T08:58:51;99135.78;;;46.11;21.47
11349;BME280;5729;43.570;27.826;2022-07-05T09:01:16;99137.59;;;46.66;16.92
11349;BME280;5729;43.570;27.826;2022-07-05T09:03:49;99137.25;;;47.66;22.48
11349;BME280;5729;43.570;27.826;2022-07-05T09:06:22;99135.66;;;48.41;18.78
11349;BME280;5729;43.570;27.826;2022-07-05T09:08:49;99133.13;;;48.24;16.29
11349;BME280;5729;43.570;27.826;2022-07-05T09:11:16;99109.53;;;48.23;15.11
11349;BME280;5729;43.570;27.826;2022-07-05T09:13:45;99131.56;;;47.99;14.96
11349;BME280;5729;43.570;27.826;2022-07-05T09:16:13;99128.22;;;48.03;15.94
11349;BME280;5729;43.570;27.826;2022-07-05T09:21:19;99135.25;;;48.35;16.67
11349;BME280;5729;43.570;27.826;2022-07-05T09:23:57;99129.31;;;47.98;16.57
11349;BME280;5729;43.570;27.826;2022-07-05T09:29:07;99120.72;;;48.43;18.78
11349;BME280;5729;43.570;27.826;2022-07-05T09:31:40;99125.31;;;47.80;16.76
11349;BME280;5729;43.570;27.826;2022-07-05T09:34:11;99128.34;;;47.39;16.39
11349;BME280;5729;43.570;27.826;2022-07-05T09:42:15;99122.28;;;47.45;16.71
11349;BME280;5729;43.570;27.826;2022-07-05T09:47:15;99116.94;;;47.72;17.84
11349;BME280;5729;43.570;27.826;2022-07-05T09:49:46;99112.34;;;48.12;18.74
11349;BME280;5729;43.570;27.826;2022-07-05T09:52:37;99116.50;;;48.44;17.57
11349;BME280;5729;43.570;27.826;2022-07-05T09:55:03;99110.41;;;48.26;17.01
11349;BME280;5729;43.570;27.826;2022-07-05T09:57:30;99105.16;;;48.11;17.52
11349;BME280;5729;43.570;27.826;2022-07-05T10:05:25;99096.88;;;47.06;18.34
11349;BME280;5729;43.570;27.826;2022-07-05T10:07:55;99086.44;;;47.11;17.73
11349;BME280;5729;43.570;27.826;2022-07-05T10:10:28;99093.94;;;46.85;18.34
11349;BME280;5729;43.570;27.826;2022-07-05T10:13:03;99087.16;;;46.90;19.61
11349;BME280;5729;43.570;27.826;2022-07-05T10:15:34;99089.34;;;45.89;18.92
11349;BME280;5729;43.570;27.826;2022-07-05T10:18:06;99095.44;;;44.72;20.51
11349;BME280;5729;43.570;27.826;2022-07-05T10:20:44;99092.44;;;44.33;20.64
11349;BME280;5729;43.570;27.826;2022-07-05T10:23:12;99093.63;;;44.30;24.56
11349;BME280;5729;43.570;27.826;2022-07-05T10:25:39;99094.38;;;44.58;25.19
11349;BME280;5729;43.570;27.826;2022-07-05T10:28:06;99096.75;;;44.98;20.43
11349;BME280;5729;43.570;27.826;2022-07-05T10:30:33;99097.13;;;44.75;19.71
11349;BME280;5729;43.570;27.826;2022-07-05T10:33:02;99098.22;;;44.53;20.12
11349;BME280;5729;43.570;27.826;2022-07-05T10:35:28;99084.25;;;44.10;21.55
11349;BME280;5729;43.570;27.826;2022-07-05T10:37:54;99089.66;;;43.89;23.95
11349;BME280;5729;43.570;27.826;2022-07-05T10:40:21;99091.22;;;43.83;22.40
11349;BME280;5729;43.570;27.826;2022-07-05T10:42:51;99080.97;;;43.35;23.25
11349;BME280;5729;43.570;27.826;2022-07-05T10:53:09;99081.88;;;41.81;21.80
11349;BME280;5729;43.570;27.826;2022-07-05T10:55:57;99077.63;;;41.65;21.89
11349;BME280;5729;43.570;27.826;2022-07-05T11:06:06;99060.28;;;42.01;24.57
11349;BME280;5729;43.570;27.826;2022-07-05T11:11:31;99063.81;;;42.91;22.83
11349;BME280;5729;43.570;27.826;2022-07-05T11:13:59;99065.84;;;42.73;23.33
11349;BME280;5729;43.570;27.826;2022-07-05T11:19:13;99056.81;;;41.78;24.27
11349;BME280;5729;43.570;27.826;2022-07-05T11:22:07;99063.19;;;41.86;22.30
11349;BME280;5729;43.570;27.826;2022-07-05T11:24:37;99060.25;;;41.68;22.24
11349;BME280;5729;43.570;27.826;2022-07-05T11:27:09;99066.53;;;41.44;23.03
11349;BME280;5729;43.570;27.826;2022-07-05T11:29:41;99055.94;;;41.60;25.21
11349;BME280;5729;43.570;27.826;2022-07-05T11:32:09;99059.47;;;41.05;22.57
11349;BME280;5729;43.570;27.826;2022-07-05T11:34:36;99054.16;;;41.24;24.96
11349;BME280;5729;43.570;27.826;2022-07-05T11:39:42;99040.75;;;41.80;25.41
11349;BME280;5729;43.570;27.826;2022-07-05T11:42:09;99054.56;;;42.16;24.93
11349;BME280;5729;43.570;27.826;2022-07-05T11:44:35;99051.91;;;42.18;23.45
11349;BME280;5729;43.570;27.826;2022-07-05T11:47:02;99054.88;;;41.88;22.12
11349;BME280;5729;43.570;27.826;2022-07-05T11:49:28;99047.66;;;41.54;22.64
11349;BME280;5729;43.570;27.826;2022-07-05T11:52:02;99049.81;;;41.31;25.24
11349;BME280;5729;43.570;27.826;2022-07-05T11:54:30;99043.22;;;41.21;26.36
11349;BME280;5729;43.570;27.826;2022-07-05T11:56:56;99040.75;;;41.32;25.01
11349;BME280;5729;43.570;27.826;2022-07-05T11:59:24;99047.72;;;41.39;25.16
11349;BME280;5729;43.570;27.826;2022-07-05T12:01:50;99034.94;;;41.08;25.42
11349;BME280;5729;43.570;27.826;2022-07-05T12:04:26;99036.28;;;40.99;23.41
11349;BME280;5729;43.570;27.826;2022-07-05T12:06:52;99038.72;;;40.87;26.92
11349;BME280;5729;43.570;27.826;2022-07-05T12:09:28;99042.88;;;40.63;25.00
11349;BME280;5729;43.570;27.826;2022-07-05T12:12:19;99033.06;;;40.34;24.92
11349;BME280;5729;43.570;27.826;2022-07-05T12:15:03;99028.88;;;40.05;24.92
11349;BME280;5729;43.570;27.826;2022-07-05T12:17:29;99025.16;;;39.74;24.92
11349;BME280;5729;43.570;27.826;2022-07-05T12:19:54;99027.75;;;39.56;26.42
11349;BME280;5729;43.570;27.826;2022-07-05T12:22:34;99031.56;;;39.67;29.30
11349;BME280;5729;43.570;27.826;2022-07-05T12:25:01;99026.31;;;39.35;25.73
11349;BME280;5729;43.570;27.826;2022-07-05T12:27:27;99021.03;;;39.31;27.45
11349;BME280;5729;43.570;27.826;2022-07-05T12:29:54;99032.06;;;39.50;35.94
11349;BME280;5729;43.570;27.826;2022-07-05T12:32:19;99022.19;;;39.79;27.38
11349;BME280;5729;43.570;27.826;2022-07-05T12:34:45;99025.41;;;39.83;27.00
11349;BME280;5729;43.570;27.826;2022-07-05T12:37:10;99022.75;;;39.78;26.07
11349;BME280;5729;43.570;27.826;2022-07-05T12:39:44;99026.16;;;39.40;25.79
11349;BME280;5729;43.570;27.826;2022-07-05T12:42:09;99030.50;;;39.05;29.83
11349;BME280;5729;43.570;27.826;2022-07-05T12:44:35;99022.03;;;39.05;31.23
11349;BME280;5729;43.570;27.826;2022-07-05T12:47:04;99007.97;;;39.13;27.03
11349;BME280;5729;43.570;27.826;2022-07-05T12:49:52;99015.63;;;39.05;28.27
11349;BME280;5729;43.570;27.826;2022-07-05T12:52:18;99007.88;;;38.98;34.49
11349;BME280;5729;43.570;27.826;2022-07-05T12:54:43;99016.63;;;39.15;27.37
11349;BME280;5729;43.570;27.826;2022-07-05T12:57:27;99019.84;;;39.19;27.98
11349;BME280;5729;43.570;27.826;2022-07-05T13:00:15;99019.91;;;38.98;28.11
11349;BME280;5729;43.570;27.826;2022-07-05T13:02:46;99014.34;;;38.85;28.15
11349;BME280;5729;43.570;27.826;2022-07-05T13:05:23;99020.38;;;38.89;34.01
11349;BME280;5729;43.570;27.826;2022-07-05T13:07:48;99028.50;;;38.93;27.52
11349;BME280;5729;43.570;27.826;2022-07-05T13:10:27;99011.53;;;38.85;29.27
11349;BME280;5729;43.570;27.826;2022-07-05T13:12:58;99007.34;;;38.78;30.31
11349;BME280;5729;43.570;27.826;2022-07-05T13:15:24;99010.59;;;38.62;29.88
11349;BME280;5729;43.570;27.826;2022-07-05T13:17:50;99011.31;;;38.55;28.60
11349;BME280;5729;43.570;27.826;2022-07-05T13:20:17;99013.47;;;38.28;27.90
11349;BME280;5729;43.570;27.826;2022-07-05T13:22:45;99019.09;;;38.28;31.01
11349;BME280;5729;43.570;27.826;2022-07-05T13:25:11;98981.91;;;38.22;31.05
11349;BME280;5729;43.570;27.826;2022-07-05T13:27:38;98999.22;;;38.26;29.27
11349;BME280;5729;43.570;27.826;2022-07-05T13:30:04;99000.69;;;38.27;28.98
11349;BME280;5729;43.570;27.826;2022-07-05T13:32:30;98995.41;;;38.02;27.93
11349;BME280;5729;43.570;27.826;2022-07-05T13:34:57;98985.00;;;37.76;28.59
11349;BME280;5729;43.570;27.826;2022-07-05T13:37:22;98996.28;;;37.97;28.51
11349;BME280;5729;43.570;27.826;2022-07-05T13:39:48;98988.06;;;38.41;28.81
11349;BME280;5729;43.570;27.826;2022-07-05T13:42:13;98989.59;;;38.91;27.07
11349;BME280;5729;43.570;27.826;2022-07-05T13:44:38;98990.41;;;39.35;27.00